createdAt,value
2023-01-20T00:02:13.259Z,3.13
2023-01-20T00:04:40.120Z,2.67
2023-01-20T00:07:06.861Z,2.78
2023-01-20T00:09:33.620Z,3.63
2023-01-20T00:12:00.344Z,3.08
2023-01-20T00:14:27.816Z,3.13
2023-01-20T00:16:57.377Z,3.63
2023-01-20T00:19:24.604Z,3.35
2023-01-20T00:21:51.278Z,3.35
2023-01-20T00:24:18.007Z,3.38
2023-01-20T00:26:44.836Z,3.00
2023-01-20T00:29:11.664Z,3.42
2023-01-20T00:31:38.619Z,3.38
2023-01-20T00:34:05.508Z,3.38
2023-01-20T00:36:32.825Z,3.92
2023-01-20T00:38:59.496Z,3.22
2023-01-20T00:41:26.323Z,3.10
2023-01-20T00:43:53.201Z,3.45
2023-01-20T00:46:23.099Z,4.22
2023-01-20T00:48:50.043Z,3.88
2023-01-20T00:51:16.845Z,3.65
2023-01-20T00:53:43.559Z,3.47
2023-01-20T00:56:10.295Z,4.13
2023-01-20T00:58:36.972Z,3.28
2023-01-20T01:01:04.035Z,4.55
2023-01-20T01:03:34.670Z,3.17
2023-01-20T01:06:09.316Z,3.55
2023-01-20T01:08:36.100Z,3.53
2023-01-20T01:11:03.389Z,3.55
2023-01-20T01:13:30.406Z,4.50
2023-01-20T01:15:57.315Z,3.75
2023-01-20T01:18:24.785Z,5.50
2023-01-20T01:20:51.483Z,5.30
2023-01-20T01:23:18.260Z,5.40
2023-01-20T01:25:44.892Z,7.22
2023-01-20T01:28:11.696Z,6.95
2023-01-20T01:30:38.360Z,6.63
2023-01-20T01:33:05.142Z,6.93
2023-01-20T01:35:32.040Z,6.82
2023-01-20T01:37:58.685Z,6.53
2023-01-20T01:40:25.410Z,6.95
2023-01-20T01:42:52.053Z,6.85
2023-01-20T01:45:22.120Z,7.18
2023-01-20T01:48:01.155Z,7.50
2023-01-20T01:50:57.636Z,7.22
2023-01-20T01:53:25.505Z,6.95
2023-01-20T01:55:56.389Z,7.22
2023-01-20T01:58:30.458Z,7.75
2023-01-20T02:00:57.228Z,7.47
2023-01-20T02:03:24.197Z,7.95
2023-01-20T02:05:52.203Z,8.20
2023-01-20T02:08:20.640Z,8.95
2023-01-20T02:10:47.337Z,7.28
2023-01-20T02:13:15.555Z,7.43
2023-01-20T02:15:54.957Z,6.93
2023-01-20T02:18:30.913Z,7.55
2023-01-20T02:21:21.084Z,7.22
2023-01-20T02:24:24.924Z,6.85
2023-01-20T02:27:29.734Z,6.22
2023-01-20T02:30:02.098Z,6.88
2023-01-20T02:32:59.521Z,6.47
2023-01-20T02:35:27.902Z,6.60
2023-01-20T02:38:01.637Z,6.50
2023-01-20T02:40:53.549Z,6.25
2023-01-20T02:43:58.849Z,6.53
2023-01-20T02:46:33.277Z,5.53
2023-01-20T02:49:36.516Z,6.20
2023-01-20T02:52:13.658Z,6.60
2023-01-20T02:54:42.612Z,6.78
2023-01-20T02:57:12.368Z,6.65
2023-01-20T02:59:43.111Z,7.00
2023-01-20T03:02:20.377Z,7.80
2023-01-20T03:04:59.595Z,7.78
2023-01-20T03:07:29.188Z,7.50
2023-01-20T03:09:58.930Z,8.60
2023-01-20T03:12:33.673Z,7.80
2023-01-20T03:15:00.619Z,8.95
2023-01-20T03:17:27.342Z,9.20
2023-01-20T03:19:54.015Z,8.80
2023-01-20T03:22:22.192Z,8.77
2023-01-20T03:24:49.085Z,8.88
2023-01-20T03:27:15.881Z,8.38
2023-01-20T03:29:43.093Z,9.80
2023-01-20T03:32:10.944Z,8.57
2023-01-20T03:34:40.085Z,9.05
2023-01-20T03:37:07.088Z,7.50
2023-01-20T03:39:33.992Z,8.52
2023-01-20T03:42:13.928Z,7.13
2023-01-20T03:44:49.381Z,8.63
2023-01-20T03:50:09.493Z,8.85
2023-01-20T03:52:48.408Z,9.18
2023-01-20T03:55:22.936Z,9.15
2023-01-20T03:57:58.228Z,7.65
2023-01-20T04:00:26.755Z,8.63
2023-01-20T04:02:57.680Z,7.63
2023-01-20T04:05:26.707Z,7.82
2023-01-20T04:07:56.625Z,7.40
2023-01-20T04:10:24.208Z,7.70
2023-01-20T04:12:50.921Z,7.03
2023-01-20T04:15:18.125Z,7.95
2023-01-20T04:17:45.347Z,8.27
2023-01-20T04:20:13.895Z,7.55
2023-01-20T04:22:51.239Z,8.48
2023-01-20T04:25:24.901Z,7.15
2023-01-20T04:27:51.746Z,7.47
2023-01-20T04:30:18.634Z,7.53
2023-01-20T04:32:45.398Z,9.45
2023-01-20T04:35:16.932Z,8.15
2023-01-20T04:37:44.158Z,8.77
2023-01-20T04:40:11.928Z,9.05
2023-01-20T04:42:38.699Z,7.95
2023-01-20T04:45:05.744Z,8.15
2023-01-20T04:47:33.876Z,8.65
2023-01-20T04:50:00.633Z,7.65
2023-01-20T04:52:27.362Z,8.18
2023-01-20T04:54:54.046Z,8.75
2023-01-20T04:57:20.709Z,7.90
2023-01-20T04:59:47.418Z,7.82
2023-01-20T05:02:14.141Z,8.02
2023-01-20T05:04:40.873Z,8.55
2023-01-20T05:07:07.514Z,7.72
2023-01-20T05:09:34.193Z,9.95
2023-01-20T05:12:01.458Z,8.85
2023-01-20T05:14:28.178Z,10.05
2023-01-20T05:16:55.034Z,10.48
2023-01-20T05:19:21.690Z,8.55
2023-01-20T05:21:48.357Z,8.52
2023-01-20T05:24:15.037Z,8.95
2023-01-20T05:26:42.576Z,8.38
2023-01-20T05:29:09.337Z,10.68
2023-01-20T05:31:38.647Z,9.43
2023-01-20T05:34:05.637Z,9.15
2023-01-20T05:36:32.921Z,8.65
2023-01-20T05:38:59.639Z,10.23
2023-01-20T05:41:26.448Z,9.10
2023-01-20T05:43:56.240Z,10.35
2023-01-20T05:46:22.940Z,10.40
2023-01-20T05:48:49.689Z,11.43
2023-01-20T05:51:16.402Z,12.20
2023-01-20T05:53:43.067Z,10.20
2023-01-20T05:56:12.220Z,10.32
2023-01-20T06:01:10.931Z,14.10
2023-01-20T06:03:38.445Z,12.18
2023-01-20T06:06:07.774Z,12.90
2023-01-20T06:08:35.358Z,10.60
2023-01-20T06:11:02.043Z,11.45
2023-01-20T06:13:28.835Z,14.57
2023-01-20T06:15:55.797Z,12.68
2023-01-20T06:18:23.200Z,11.48
2023-01-20T06:20:49.869Z,13.32
2023-01-20T06:23:16.756Z,12.20
2023-01-20T06:25:44.060Z,13.23
2023-01-20T06:28:11.124Z,10.63
2023-01-20T06:30:38.283Z,10.02
2023-01-20T06:33:10.571Z,9.10
2023-01-20T06:35:37.810Z,8.60
2023-01-20T06:38:04.589Z,7.53
2023-01-20T06:40:31.748Z,10.80
2023-01-20T06:42:59.224Z,8.55
2023-01-20T06:45:26.002Z,10.30
2023-01-20T06:47:53.882Z,9.57
2023-01-20T06:50:20.592Z,9.00
2023-01-20T06:52:47.309Z,10.57
2023-01-20T06:55:14.434Z,7.45
2023-01-20T06:57:41.231Z,7.88
2023-01-20T07:00:10.761Z,11.73
2023-01-20T07:02:37.457Z,9.68
2023-01-20T07:05:08.132Z,7.22
2023-01-20T07:07:35.273Z,6.53
2023-01-20T07:10:03.524Z,7.72
2023-01-20T07:12:30.263Z,5.85
2023-01-20T07:14:56.924Z,6.80
2023-01-20T07:17:23.617Z,6.40
2023-01-20T07:19:50.237Z,7.53
2023-01-20T07:22:16.913Z,6.65
2023-01-20T07:24:43.536Z,8.00
2023-01-20T07:27:10.197Z,7.30
2023-01-20T07:29:38.080Z,7.68
2023-01-20T07:32:05.115Z,7.43
2023-01-20T07:34:31.784Z,6.22
2023-01-20T07:37:01.404Z,8.30
2023-01-20T07:39:28.458Z,6.10
2023-01-20T07:41:55.134Z,6.32
2023-01-20T07:44:21.703Z,7.00
2023-01-20T07:46:48.541Z,5.68
2023-01-20T07:49:15.186Z,6.40
2023-01-20T07:51:43.326Z,5.03
2023-01-20T07:54:11.748Z,5.82
2023-01-20T07:56:38.390Z,4.85
2023-01-20T07:59:05.091Z,5.20
2023-01-20T08:01:33.065Z,6.30
2023-01-20T08:04:03.282Z,5.35
2023-01-20T08:06:30.903Z,4.93
2023-01-20T08:09:01.065Z,5.40
2023-01-20T08:11:27.850Z,4.90
2023-01-20T08:13:54.702Z,4.80
2023-01-20T08:16:21.480Z,5.30
2023-01-20T08:18:48.205Z,6.72
2023-01-20T08:21:27.831Z,5.50
2023-01-20T08:23:58.556Z,7.70
2023-01-20T08:26:27.956Z,6.32
2023-01-20T08:28:55.839Z,7.70
2023-01-20T08:31:24.789Z,9.60
2023-01-20T08:33:55.712Z,6.40
2023-01-20T08:36:25.992Z,5.60
2023-01-20T08:38:52.724Z,5.90
2023-01-20T08:41:25.359Z,5.82
2023-01-20T08:43:52.101Z,6.43
2023-01-20T08:46:20.569Z,7.35
2023-01-20T08:48:48.428Z,6.18
2023-01-20T08:51:18.351Z,8.50
2023-01-20T08:53:45.205Z,8.05
2023-01-20T08:56:12.316Z,6.57
2023-01-20T08:58:39.247Z,5.38
2023-01-20T09:01:14.672Z,6.47
2023-01-20T09:03:45.025Z,6.03
2023-01-20T09:06:17.712Z,10.77
2023-01-20T09:08:44.381Z,9.02
2023-01-20T09:11:13.849Z,6.25
2023-01-20T09:13:40.732Z,7.05
2023-01-20T09:16:08.076Z,5.93
2023-01-20T09:18:35.485Z,5.45
2023-01-20T09:21:06.742Z,6.13
2023-01-20T09:23:35.149Z,5.82
2023-01-20T09:26:03.008Z,6.93
2023-01-20T09:28:30.399Z,5.93
2023-01-20T09:31:04.246Z,5.50
2023-01-20T09:33:31.894Z,6.63
2023-01-20T09:35:59.437Z,5.15
2023-01-20T09:38:45.638Z,6.53
2023-01-20T09:41:37.753Z,7.05
2023-01-20T09:44:19.986Z,6.78
2023-01-20T09:47:20.288Z,7.10
2023-01-20T09:50:30.596Z,6.63
2023-01-20T09:53:26.262Z,5.63
2023-01-20T09:55:53.396Z,5.88
2023-01-20T09:58:44.767Z,4.65
2023-01-20T10:01:38.192Z,6.22
2023-01-20T10:04:14.107Z,4.50
2023-01-20T10:06:54.854Z,4.38
2023-01-20T10:09:33.558Z,5.95
2023-01-20T10:12:09.657Z,4.38
2023-01-20T10:14:44.890Z,5.22
2023-01-20T10:20:41.574Z,4.35
2023-01-20T10:23:21.353Z,4.80
2023-01-20T10:25:52.490Z,3.92
2023-01-20T10:28:26.681Z,5.20
2023-01-20T10:30:53.536Z,4.43
2023-01-20T10:33:26.831Z,4.45
2023-01-20T10:35:55.291Z,3.95
2023-01-20T10:38:43.689Z,4.97
2023-01-20T10:41:27.184Z,4.55
2023-01-20T10:43:54.270Z,4.05
2023-01-20T10:46:45.790Z,4.13
2023-01-20T10:49:25.647Z,3.90
2023-01-20T10:52:10.521Z,4.13
2023-01-20T10:54:52.340Z,4.20
2023-01-20T10:57:19.187Z,4.28
2023-01-20T10:59:49.590Z,4.35
2023-01-20T11:02:34.979Z,4.70
2023-01-20T11:05:09.406Z,4.03
2023-01-20T11:07:36.167Z,3.90
2023-01-20T11:10:25.030Z,4.32
2023-01-20T11:12:55.138Z,4.18
2023-01-20T11:15:31.901Z,4.38
2023-01-20T11:18:16.830Z,4.10
2023-01-20T11:20:45.836Z,4.57
2023-01-20T11:23:42.991Z,5.30
2023-01-20T11:26:29.340Z,4.00
2023-01-20T11:28:57.941Z,3.78
2023-01-20T11:31:55.896Z,4.28
2023-01-20T11:34:29.320Z,4.07
2023-01-20T11:37:04.872Z,4.82
2023-01-20T11:39:33.981Z,3.53
2023-01-20T11:44:52.177Z,3.67
2023-01-20T11:47:23.295Z,3.45
2023-01-20T11:50:05.809Z,3.92
2023-01-20T11:52:36.544Z,3.47
2023-01-20T11:55:16.549Z,3.30
2023-01-20T11:57:58.169Z,4.20
2023-01-20T12:00:37.384Z,3.78
2023-01-20T12:03:25.252Z,4.18
2023-01-20T12:06:15.292Z,3.75
2023-01-20T12:09:04.250Z,4.28
2023-01-20T12:11:34.369Z,4.40
2023-01-20T12:14:20.351Z,4.57
2023-01-20T12:16:59.093Z,4.70
2023-01-20T12:19:34.151Z,4.63
2023-01-20T12:22:04.395Z,4.20
2023-01-20T12:24:57.474Z,4.00
2023-01-20T12:27:27.304Z,4.20
2023-01-20T12:29:59.161Z,4.25
2023-01-20T12:32:25.939Z,4.65
2023-01-20T12:34:52.570Z,4.07
2023-01-20T12:37:40.701Z,4.43
2023-01-20T12:40:41.414Z,3.78
2023-01-20T12:43:08.086Z,4.25
2023-01-20T12:45:57.232Z,4.28
2023-01-20T12:48:49.268Z,4.40
2023-01-20T12:51:34.163Z,4.90
2023-01-20T12:54:03.803Z,4.63
2023-01-20T12:56:37.529Z,5.22
2023-01-20T12:59:09.866Z,6.35
2023-01-20T13:02:01.348Z,4.93
2023-01-20T13:05:01.787Z,4.57
2023-01-20T13:07:40.417Z,6.13
2023-01-20T13:10:25.379Z,4.55
2023-01-20T13:13:00.632Z,4.63
2023-01-20T13:15:28.550Z,4.20
2023-01-20T13:18:14.331Z,3.72
2023-01-20T13:20:45.567Z,4.90
2023-01-20T13:23:21.714Z,4.47
2023-01-20T13:25:49.901Z,5.25
2023-01-20T13:28:22.468Z,5.68
2023-01-20T13:30:51.715Z,4.43
2023-01-20T13:33:31.902Z,4.32
2023-01-20T13:36:00.163Z,4.18
2023-01-20T13:38:33.108Z,4.85
2023-01-20T13:41:03.474Z,4.13
2023-01-20T13:43:43.089Z,5.47
2023-01-20T13:46:09.995Z,4.55
2023-01-20T13:48:38.320Z,4.53
2023-01-20T13:51:26.961Z,4.18
2023-01-20T13:53:53.720Z,3.70
2023-01-20T13:56:26.866Z,4.25
2023-01-20T13:58:59.847Z,5.82
2023-01-20T14:01:28.039Z,8.55
2023-01-20T14:04:04.112Z,4.30
2023-01-20T14:06:34.189Z,6.05
2023-01-20T14:09:04.368Z,4.68
2023-01-20T14:11:31.494Z,4.70
2023-01-20T14:14:05.845Z,4.75
2023-01-20T14:16:35.500Z,4.68
2023-01-20T14:19:32.504Z,4.07
2023-01-20T14:22:15.421Z,4.18
2023-01-20T14:24:47.846Z,5.15
2023-01-20T14:27:17.126Z,5.05
2023-01-20T14:29:44.696Z,3.55
2023-01-20T14:32:32.047Z,2.80
2023-01-20T14:34:58.923Z,2.83
2023-01-20T14:37:28.550Z,3.13
2023-01-20T14:39:58.649Z,1.90
2023-01-20T14:42:27.343Z,2.47
2023-01-20T14:44:55.791Z,1.98
2023-01-20T14:47:24.395Z,2.45
2023-01-20T14:49:52.536Z,2.30
2023-01-20T14:52:21.978Z,2.63
2023-01-20T14:54:52.072Z,3.00
2023-01-20T14:57:22.906Z,2.28
2023-01-20T15:00:22.718Z,3.15
2023-01-20T15:03:11.649Z,4.43
2023-01-20T15:05:41.596Z,4.65
2023-01-20T15:08:25.511Z,3.75
2023-01-20T15:11:17.030Z,5.22
2023-01-20T15:13:57.214Z,9.80
2023-01-20T15:16:27.961Z,3.75
2023-01-20T15:19:13.693Z,3.78
2023-01-20T15:21:41.867Z,2.58
2023-01-20T15:24:23.179Z,1.48
2023-01-20T15:26:52.017Z,1.33
2023-01-20T15:29:25.734Z,1.90
2023-01-20T15:31:53.610Z,2.33
2023-01-20T15:34:21.766Z,1.75
2023-01-20T15:36:49.740Z,1.42
2023-01-20T15:39:21.326Z,1.00
2023-01-20T15:41:48.859Z,1.17
2023-01-20T15:44:15.794Z,1.75
2023-01-20T15:46:42.512Z,1.42
2023-01-20T15:49:12.748Z,1.80
2023-01-20T15:51:39.432Z,2.10
2023-01-20T15:54:07.506Z,1.65
2023-01-20T15:56:35.655Z,1.48
2023-01-20T15:59:02.725Z,1.42
2023-01-20T16:01:29.544Z,0.98
2023-01-20T16:03:57.358Z,1.25
2023-01-20T16:06:31.620Z,2.25
2023-01-20T16:09:00.547Z,2.42
2023-01-20T16:11:27.236Z,1.85
2023-01-20T16:13:53.922Z,2.28
2023-01-20T16:16:22.852Z,2.72
2023-01-20T16:18:50.017Z,1.70
2023-01-20T16:21:18.436Z,1.80
2023-01-20T16:23:46.674Z,2.13
2023-01-20T16:26:28.739Z,2.80
2023-01-20T16:28:57.364Z,4.80
2023-01-20T16:31:25.879Z,5.72
2023-01-20T16:33:54.537Z,2.35
2023-01-20T16:36:24.250Z,5.70
2023-01-20T16:38:51.596Z,2.40
2023-01-20T16:41:25.781Z,2.88
2023-01-20T16:43:54.388Z,2.80
2023-01-20T16:46:29.158Z,2.65
2023-01-20T16:49:01.571Z,2.97
2023-01-20T16:51:29.207Z,2.92
2023-01-20T16:53:56.987Z,3.35
2023-01-20T16:56:26.548Z,1.85
2023-01-20T16:58:54.756Z,2.97
2023-01-20T17:01:24.776Z,2.10
2023-01-20T17:03:52.868Z,4.22
2023-01-20T17:06:21.879Z,1.92
2023-01-20T17:08:53.591Z,2.65
2023-01-20T17:11:34.608Z,1.85
2023-01-20T17:14:03.333Z,1.55
2023-01-20T17:16:32.980Z,2.83
2023-01-20T17:19:00.896Z,1.63
2023-01-20T17:21:30.581Z,3.05
2023-01-20T17:24:00.128Z,1.45
2023-01-20T17:26:26.896Z,2.05
2023-01-20T17:28:55.401Z,2.83
2023-01-20T17:31:22.797Z,4.18
2023-01-20T17:33:49.930Z,3.78
2023-01-20T17:36:16.939Z,1.90
2023-01-20T17:38:44.301Z,2.13
2023-01-20T17:41:11.782Z,1.90
2023-01-20T17:43:44.170Z,2.35
2023-01-20T17:46:18.254Z,2.58
2023-01-20T17:48:45.629Z,1.50
2023-01-20T17:51:14.636Z,2.15
2023-01-20T17:53:41.716Z,1.75
2023-01-20T17:56:13.269Z,1.17
2023-01-20T17:58:41.608Z,2.03
2023-01-20T18:01:13.244Z,1.77
2023-01-20T18:03:42.919Z,3.08
2023-01-20T18:06:11.760Z,2.83
2023-01-20T18:08:38.560Z,2.30
2023-01-20T18:11:07.015Z,2.22
2023-01-20T18:13:35.385Z,5.07
2023-01-20T18:16:11.616Z,2.65
2023-01-20T18:18:39.471Z,1.80
2023-01-20T18:21:19.504Z,1.35
2023-01-20T18:23:48.870Z,2.08
2023-01-20T18:26:23.081Z,1.80
2023-01-20T18:28:53.350Z,2.55
2023-01-20T18:31:21.816Z,4.57
2023-01-20T18:33:58.810Z,5.60
2023-01-20T18:36:30.671Z,2.08
2023-01-20T18:38:59.885Z,1.92
2023-01-20T18:41:28.797Z,1.65
2023-01-20T18:43:56.664Z,2.00
2023-01-20T18:46:23.931Z,1.80
2023-01-20T18:48:52.973Z,2.50
2023-01-20T18:51:21.214Z,2.03
2023-01-20T18:53:55.304Z,1.85
2023-01-20T18:56:22.420Z,2.63
2023-01-20T18:58:50.799Z,2.00
2023-01-20T19:01:22.366Z,1.42
2023-01-20T19:03:49.562Z,2.00
2023-01-20T19:06:26.041Z,1.55
2023-01-20T19:08:53.168Z,2.15
2023-01-20T19:11:23.077Z,2.47
2023-01-20T19:13:51.067Z,2.35
2023-01-20T19:16:19.572Z,2.13
2023-01-20T19:18:51.844Z,2.13
2023-01-20T19:21:18.762Z,4.55
2023-01-20T19:23:51.957Z,2.35
2023-01-20T19:26:19.700Z,2.85
2023-01-20T19:28:48.005Z,2.90
2023-01-20T19:31:17.844Z,1.85
2023-01-20T19:33:45.360Z,1.92
2023-01-20T19:36:15.330Z,2.15
2023-01-20T19:38:42.849Z,2.08
2023-01-20T19:41:10.492Z,2.75
2023-01-20T19:43:37.864Z,2.50
2023-01-20T19:46:13.144Z,2.30
2023-01-20T19:48:40.554Z,2.30
2023-01-20T19:51:13.219Z,2.22
2023-01-20T19:53:42.554Z,2.33
2023-01-20T19:58:40.460Z,1.88
2023-01-20T20:01:29.122Z,2.70
2023-01-20T20:03:57.851Z,2.53
2023-01-20T20:06:28.024Z,2.20
2023-01-20T20:08:59.098Z,2.42
2023-01-20T20:11:27.200Z,2.45
2023-01-20T20:13:55.720Z,2.47
2023-01-20T20:16:23.352Z,2.72
2023-01-20T20:18:51.364Z,3.00
2023-01-20T20:21:18.577Z,2.33
2023-01-20T20:23:48.712Z,2.15
2023-01-20T20:26:15.354Z,3.35
2023-01-20T20:28:42.177Z,2.72
2023-01-20T20:31:09.627Z,2.47
2023-01-20T20:33:36.513Z,3.30
2023-01-20T20:36:08.403Z,2.80
2023-01-20T20:38:36.710Z,3.83
2023-01-20T20:41:05.208Z,3.63
2023-01-20T20:43:31.878Z,3.42
2023-01-20T20:46:05.945Z,3.42
2023-01-20T20:48:36.659Z,3.03
2023-01-20T20:51:07.931Z,2.22
2023-01-20T20:53:34.902Z,2.83
2023-01-20T20:56:04.205Z,3.20
2023-01-20T21:01:02.722Z,3.22
2023-01-20T21:03:30.703Z,3.78
2023-01-20T21:05:58.014Z,2.67
2023-01-20T21:08:26.849Z,4.13
2023-01-20T21:10:53.712Z,2.83
2023-01-20T21:13:20.559Z,2.83
2023-01-20T21:16:09.651Z,2.78
2023-01-20T21:18:37.347Z,3.55
2023-01-20T21:21:05.704Z,3.10
2023-01-20T21:23:33.317Z,2.85
2023-01-20T21:26:02.057Z,2.95
2023-01-20T21:28:29.288Z,3.88
2023-01-20T21:30:56.076Z,3.70
2023-01-20T21:33:23.574Z,2.92
2023-01-20T21:35:50.614Z,3.08
2023-01-20T21:38:17.379Z,2.88
2023-01-20T21:40:59.765Z,3.47
2023-01-20T21:43:52.271Z,1.33
2023-01-20T21:46:19.389Z,0.98
2023-01-20T21:49:04.857Z,1.02
2023-01-20T21:51:50.624Z,0.95
2023-01-20T21:54:17.678Z,1.13
2023-01-20T21:56:44.429Z,0.70
2023-01-20T21:59:11.106Z,1.27
2023-01-20T22:01:38.296Z,1.08
2023-01-20T22:04:05.194Z,1.05
2023-01-20T22:06:31.833Z,0.90
2023-01-20T22:08:59.685Z,1.67
2023-01-20T22:11:28.011Z,0.95
2023-01-20T22:13:56.087Z,1.05
2023-01-20T22:16:23.879Z,0.98
2023-01-20T22:18:50.990Z,1.05
2023-01-20T22:21:19.722Z,0.98
2023-01-20T22:23:46.483Z,0.85
2023-01-20T22:26:13.263Z,0.52
2023-01-20T22:28:40.106Z,0.90
2023-01-20T22:31:08.409Z,0.82
2023-01-20T22:33:35.236Z,1.00
2023-01-20T22:36:02.947Z,1.13
2023-01-20T22:38:29.930Z,1.40
2023-01-20T22:41:06.023Z,1.20
2023-01-20T22:43:33.910Z,1.33
2023-01-20T22:46:02.124Z,1.02
2023-01-20T22:48:30.978Z,1.38
2023-01-20T22:51:08.010Z,1.33
2023-01-20T22:53:34.977Z,1.40
2023-01-20T22:56:06.267Z,1.67
2023-01-20T22:58:33.145Z,1.42
2023-01-20T23:01:00.421Z,1.33
2023-01-20T23:03:27.503Z,1.33
2023-01-20T23:05:58.991Z,1.20
2023-01-20T23:08:27.194Z,1.45
2023-01-20T23:10:56.596Z,1.45
2023-01-20T23:15:51.458Z,2.00
2023-01-20T23:18:19.124Z,1.23
2023-01-20T23:20:50.270Z,2.08
2023-01-20T23:23:18.887Z,1.58
2023-01-20T23:25:45.679Z,1.27
2023-01-20T23:28:13.601Z,1.88
2023-01-20T23:30:40.712Z,1.92
2023-01-20T23:33:08.198Z,1.52
2023-01-20T23:35:39.125Z,1.73
2023-01-20T23:38:06.860Z,2.33
2023-01-20T23:40:34.023Z,2.45
2023-01-20T23:43:00.888Z,1.88
2023-01-20T23:45:28.859Z,1.60
2023-01-20T23:47:55.756Z,2.42
2023-01-20T23:50:22.463Z,2.05
2023-01-20T23:52:49.159Z,1.95
2023-01-20T23:55:16.034Z,2.00
2023-01-20T23:57:42.716Z,2.13
